map of MKY home
MKY - Airport
Location
City:  Mackay, Queensland, Australia
ICAO:YBMK
IATA:MKY

Details
Type:Airport (Aerodrome, Airfield)
Use:Public/Civil
Latitude:21°10'18"S (-21.171666)
Longitude:149°10'47"E (149.179722)
Datum:WGS 1984
Elevation:19 ft (6 m)
Variation:8.36°E (WMM2015 magnetic declination)
-0.02° annual change
Runways:2
Longest:6499 × 148 ft (1981 × 45 m), paved

Time
Time Zone:UTC+10
Local Time:

Weather
METAR:YBMK 180500Z AUTO 10013KT 9999 // SCT024 29/22 Q1012

Related Locations
Nearby:
Farthest:NTO: 11978 mi / 19277 km
Ponta do Sol [Agostinho Neto], Ribeira Grande, Santo Antão, CV

Find:

   beyond  
but within

Other Information
Maps:
NOTAMs:
Links:
Sources:

  
  • flag of Australia
  • flag of Queensland
  

Sectional Chart

Flight Planning
at skyvector.com

Satellite Image

Google Maps Satellite view

 

Copyright © 2004-2019 Karl L. Swartz. All rights reserved.
The Great Circle Mapper name and logo are trademarks of the Great Circle Mapper.
All other trademarks mentioned herein belong to their respective owners.
Please see credits for attibutions and further copyright information.

  Follow gcmap on Facebook Follow gcmap on Twitter Follow gcmap on Google+ GCmap on LinkedIn

hCard Microformat

Geo Microformat